createdAt,value
2022-10-07T00:00:55.849Z,2.08
2022-10-07T00:03:25.991Z,1.88
2022-10-07T00:06:15.266Z,1.73
2022-10-07T00:08:44.977Z,2.10
2022-10-07T00:11:15.063Z,2.38
2022-10-07T00:13:43.679Z,2.10
2022-10-07T00:16:22.571Z,2.42
2022-10-07T00:18:49.576Z,2.33
2022-10-07T00:21:18.004Z,2.08
2022-10-07T00:23:46.609Z,2.42
2022-10-07T00:26:17.563Z,2.47
2022-10-07T00:31:17.854Z,2.53
2022-10-07T00:33:45.520Z,2.55
2022-10-07T00:36:28.833Z,2.53
2022-10-07T00:39:01.077Z,2.25
2022-10-07T00:41:45.554Z,2.63
2022-10-07T00:44:33.932Z,1.73
2022-10-07T00:47:19.482Z,2.90
2022-10-07T00:50:11.520Z,3.38
2022-10-07T00:52:54.030Z,1.80
2022-10-07T00:55:24.701Z,2.92
2022-10-07T00:57:55.275Z,2.20
2022-10-07T01:00:24.264Z,2.28
2022-10-07T01:02:52.167Z,2.45
2022-10-07T01:05:20.473Z,2.90
2022-10-07T01:07:50.563Z,1.65
2022-10-07T01:10:20.405Z,1.70
2022-10-07T01:13:16.335Z,1.98
2022-10-07T01:16:03.444Z,2.00
2022-10-07T01:18:35.212Z,1.80
2022-10-07T01:21:12.007Z,1.60
2022-10-07T01:23:53.385Z,2.08
2022-10-07T01:26:29.195Z,1.92
2022-10-07T01:28:59.398Z,2.47
2022-10-07T01:31:38.459Z,2.45
2022-10-07T01:34:08.861Z,2.13
2022-10-07T01:36:37.437Z,2.25
2022-10-07T01:39:12.646Z,2.13
2022-10-07T01:41:40.422Z,2.10
2022-10-07T01:44:10.650Z,2.70
2022-10-07T01:46:38.057Z,2.20
2022-10-07T01:49:08.153Z,2.30
2022-10-07T01:51:38.900Z,1.50
2022-10-07T01:54:27.116Z,1.85
2022-10-07T01:57:12.947Z,2.67
2022-10-07T01:59:57.863Z,2.28
2022-10-07T02:02:42.693Z,1.90
2022-10-07T02:05:30.692Z,2.03
2022-10-07T02:08:00.342Z,3.13
2022-10-07T02:10:37.664Z,2.13
2022-10-07T02:13:39.970Z,2.25
2022-10-07T02:16:18.761Z,2.50
2022-10-07T02:18:50.129Z,2.35
2022-10-07T02:21:21.116Z,1.90
2022-10-07T02:26:19.984Z,1.83
2022-10-07T02:28:49.780Z,2.13
2022-10-07T02:31:20.605Z,1.60
2022-10-07T02:33:48.134Z,1.63
2022-10-07T02:36:21.662Z,2.72
2022-10-07T02:38:49.393Z,2.50
2022-10-07T02:41:41.834Z,1.65
2022-10-07T02:44:25.894Z,2.47
2022-10-07T02:47:08.833Z,2.25
2022-10-07T02:49:39.630Z,2.03
2022-10-07T02:52:16.828Z,2.90
2022-10-07T02:55:00.332Z,2.75
2022-10-07T02:57:36.308Z,2.22
2022-10-07T03:00:10.964Z,1.75
2022-10-07T03:02:51.377Z,2.03
2022-10-07T03:05:21.492Z,2.50
2022-10-07T03:07:52.778Z,2.33
2022-10-07T03:10:19.851Z,3.28
2022-10-07T03:12:46.892Z,2.00
2022-10-07T03:15:14.032Z,2.38
2022-10-07T03:17:41.165Z,2.08
2022-10-07T03:20:09.599Z,2.20
2022-10-07T03:22:36.582Z,2.22
2022-10-07T03:25:03.716Z,3.25
2022-10-07T03:27:30.641Z,2.75
2022-10-07T03:29:58.757Z,2.20
2022-10-07T03:32:29.861Z,2.47
2022-10-07T03:34:56.785Z,2.10
2022-10-07T03:37:24.472Z,2.45
2022-10-07T03:39:52.761Z,2.63
2022-10-07T03:42:21.061Z,2.78
2022-10-07T03:44:50.173Z,2.22
2022-10-07T03:47:17.878Z,2.90
2022-10-07T03:49:45.364Z,2.80
2022-10-07T03:52:12.335Z,2.72
2022-10-07T03:54:39.530Z,2.63
2022-10-07T03:57:26.710Z,2.38
2022-10-07T03:59:53.754Z,2.05
2022-10-07T04:02:23.513Z,2.50
2022-10-07T04:04:52.869Z,2.92
2022-10-07T04:07:22.883Z,2.42
2022-10-07T04:09:49.857Z,2.55
2022-10-07T04:12:16.815Z,2.60
2022-10-07T04:14:43.775Z,2.47
2022-10-07T04:17:10.803Z,2.25
2022-10-07T04:19:37.789Z,2.63
2022-10-07T04:22:08.863Z,2.33
2022-10-07T04:24:36.473Z,2.90
2022-10-07T04:27:05.206Z,2.40
2022-10-07T04:29:36.730Z,2.63
2022-10-07T04:32:06.032Z,3.10
2022-10-07T04:34:32.981Z,3.38
2022-10-07T04:37:01.421Z,3.85
2022-10-07T04:39:48.919Z,3.45
2022-10-07T04:42:50.800Z,2.90
2022-10-07T04:45:18.164Z,2.92
2022-10-07T04:47:46.585Z,2.88
2022-10-07T04:50:14.060Z,2.58
2022-10-07T04:52:42.640Z,3.70
2022-10-07T04:55:12.502Z,3.33
2022-10-07T04:57:39.426Z,3.65
2022-10-07T05:00:08.382Z,4.28
2022-10-07T05:02:35.766Z,3.78
2022-10-07T05:05:03.269Z,2.95
2022-10-07T05:07:32.031Z,3.15
2022-10-07T05:09:59.647Z,2.90
2022-10-07T05:12:26.722Z,3.65
2022-10-07T05:14:53.741Z,3.35
2022-10-07T05:17:21.630Z,2.88
2022-10-07T05:19:48.630Z,2.80
2022-10-07T05:22:15.624Z,3.47
2022-10-07T05:24:42.532Z,3.10
2022-10-07T05:27:09.428Z,2.25
2022-10-07T05:29:36.405Z,2.88
2022-10-07T05:32:05.193Z,2.83
2022-10-07T05:34:32.868Z,2.65
2022-10-07T05:36:59.792Z,2.90
2022-10-07T05:39:26.709Z,2.58
2022-10-07T05:41:53.615Z,2.20
2022-10-07T05:44:20.558Z,2.75
2022-10-07T05:46:47.558Z,2.60
2022-10-07T05:49:14.469Z,2.35
2022-10-07T05:51:41.859Z,3.10
2022-10-07T05:54:08.815Z,2.17
2022-10-07T05:56:39.142Z,2.78
2022-10-07T05:59:06.087Z,2.38
2022-10-07T06:01:33.094Z,2.58
2022-10-07T06:04:00.092Z,2.65
2022-10-07T06:06:27.062Z,2.20
2022-10-07T06:08:54.282Z,2.67
2022-10-07T06:11:40.169Z,2.47
2022-10-07T06:14:07.341Z,2.83
2022-10-07T06:16:34.375Z,2.45
2022-10-07T06:19:02.027Z,2.40
2022-10-07T06:21:29.012Z,2.55
2022-10-07T06:23:58.017Z,2.50
2022-10-07T06:26:25.481Z,2.38
2022-10-07T06:28:52.429Z,2.60
2022-10-07T06:31:25.746Z,3.15
2022-10-07T06:33:53.077Z,1.98
2022-10-07T06:36:20.160Z,2.75
2022-10-07T06:38:48.975Z,2.45
2022-10-07T06:41:16.975Z,2.55
2022-10-07T06:43:43.918Z,3.22
2022-10-07T06:46:15.661Z,2.22
2022-10-07T06:48:44.597Z,2.33
2022-10-07T06:51:14.883Z,2.17
2022-10-07T06:53:42.605Z,2.20
2022-10-07T06:56:12.314Z,2.40
2022-10-07T06:58:39.295Z,2.63
2022-10-07T07:01:06.299Z,2.50
2022-10-07T07:03:33.524Z,1.77
2022-10-07T07:06:00.514Z,1.45
2022-10-07T07:08:29.189Z,1.83
2022-10-07T07:10:56.519Z,1.90
2022-10-07T07:13:24.783Z,1.98
2022-10-07T07:16:00.211Z,2.40
2022-10-07T07:18:27.220Z,1.80
2022-10-07T07:20:54.186Z,2.20
2022-10-07T07:23:21.116Z,2.22
2022-10-07T07:25:48.044Z,2.33
2022-10-07T07:28:16.232Z,2.90
2022-10-07T07:30:43.285Z,1.85
2022-10-07T07:33:10.427Z,2.58
2022-10-07T07:35:41.568Z,2.17
2022-10-07T07:38:09.191Z,2.42
2022-10-07T07:40:38.184Z,2.28
2022-10-07T07:43:05.937Z,2.83
2022-10-07T07:45:36.731Z,2.15
2022-10-07T07:48:04.385Z,2.00
2022-10-07T07:50:31.324Z,2.15
2022-10-07T07:53:00.276Z,2.28
2022-10-07T07:55:27.245Z,2.75
2022-10-07T07:57:54.193Z,1.98
2022-10-07T08:00:21.175Z,2.13
2022-10-07T08:02:48.800Z,2.05
2022-10-07T08:05:18.048Z,1.92
2022-10-07T08:07:48.579Z,2.40
2022-10-07T08:10:15.749Z,1.95
2022-10-07T08:12:42.634Z,1.60
2022-10-07T08:15:10.927Z,1.95
2022-10-07T08:17:37.823Z,1.92
2022-10-07T08:20:05.124Z,1.75
2022-10-07T08:22:32.094Z,1.90
2022-10-07T08:25:00.334Z,1.80
2022-10-07T08:27:28.356Z,1.80
2022-10-07T08:29:55.343Z,1.98
2022-10-07T08:32:22.278Z,2.17
2022-10-07T08:34:49.220Z,1.83
2022-10-07T08:37:16.214Z,1.65
2022-10-07T08:39:43.201Z,1.52
2022-10-07T08:42:17.547Z,1.80
2022-10-07T08:44:48.555Z,1.80
2022-10-07T08:47:16.275Z,1.58
2022-10-07T08:50:40.649Z,1.80
2022-10-07T08:53:12.471Z,1.92
2022-10-07T08:55:55.506Z,1.40
2022-10-07T08:59:15.953Z,1.75
2022-10-07T09:02:10.741Z,1.50
2022-10-07T09:05:06.728Z,1.45
2022-10-07T09:07:38.889Z,2.38
2022-10-07T09:10:44.342Z,2.38
2022-10-07T09:13:12.865Z,1.65
2022-10-07T09:15:46.333Z,2.50
2022-10-07T09:18:42.043Z,1.70
2022-10-07T09:21:17.267Z,1.88
2022-10-07T09:23:46.027Z,2.17
2022-10-07T09:26:15.347Z,2.05
2022-10-07T09:28:42.685Z,1.42
2022-10-07T09:31:14.682Z,1.48
2022-10-07T09:33:44.930Z,1.65
2022-10-07T09:36:15.075Z,1.73
2022-10-07T09:38:47.590Z,1.52
2022-10-07T09:41:31.377Z,2.03
2022-10-07T09:44:00.411Z,1.42
2022-10-07T09:46:46.595Z,1.63
2022-10-07T09:49:28.717Z,2.30
2022-10-07T09:52:06.322Z,1.63
2022-10-07T09:54:35.575Z,1.63
2022-10-07T09:57:04.857Z,1.67
2022-10-07T09:59:33.938Z,1.77
2022-10-07T10:02:25.628Z,1.70
2022-10-07T10:04:55.323Z,1.75
2022-10-07T10:07:34.037Z,1.50
2022-10-07T10:10:06.234Z,1.67
2022-10-07T10:12:40.643Z,2.78
2022-10-07T10:15:22.929Z,1.83
2022-10-07T10:17:51.109Z,1.63
2022-10-07T10:20:24.350Z,1.80
2022-10-07T10:22:52.789Z,1.58
2022-10-07T10:26:00.965Z,1.30
2022-10-07T10:29:03.003Z,1.85
2022-10-07T10:32:00.443Z,1.90
2022-10-07T10:34:52.886Z,1.52
2022-10-07T10:37:58.272Z,1.63
2022-10-07T10:41:16.582Z,1.85
2022-10-07T10:44:25.224Z,1.55
2022-10-07T10:47:17.376Z,1.80
2022-10-07T10:50:12.326Z,1.35
2022-10-07T10:52:45.502Z,1.58
2022-10-07T10:55:33.335Z,2.03
2022-10-07T10:58:30.469Z,2.20
2022-10-07T11:01:05.469Z,2.08
2022-10-07T11:03:48.300Z,1.98
2022-10-07T11:06:18.295Z,2.42
2022-10-07T11:08:47.603Z,1.77
2022-10-07T11:11:19.969Z,1.83
2022-10-07T11:14:20.406Z,1.40
2022-10-07T11:17:13.741Z,1.60
2022-10-07T11:19:49.835Z,1.52
2022-10-07T11:22:25.166Z,1.98
2022-10-07T11:25:00.311Z,1.65
2022-10-07T11:27:33.484Z,2.00
2022-10-07T11:30:14.867Z,1.45
2022-10-07T11:33:08.731Z,1.80
2022-10-07T11:35:44.008Z,2.30
2022-10-07T11:38:10.901Z,1.42
2022-10-07T11:41:00.972Z,1.50
2022-10-07T11:43:46.786Z,1.55
2022-10-07T11:46:30.435Z,1.23
2022-10-07T11:49:18.966Z,1.35
2022-10-07T11:52:00.375Z,1.13
2022-10-07T11:54:31.915Z,1.20
2022-10-07T11:57:00.760Z,1.60
2022-10-07T11:59:27.712Z,1.50
2022-10-07T12:01:55.361Z,1.50
2022-10-07T12:04:34.030Z,2.05
2022-10-07T12:07:42.742Z,1.50
2022-10-07T12:10:31.819Z,2.03
2022-10-07T12:13:00.485Z,1.23
2022-10-07T12:15:31.870Z,1.88
2022-10-07T12:18:04.948Z,1.48
2022-10-07T12:20:34.873Z,1.25
2022-10-07T12:23:19.956Z,1.48
2022-10-07T12:25:58.950Z,1.30
2022-10-07T12:28:46.191Z,1.58
2022-10-07T12:31:16.163Z,1.45
2022-10-07T12:33:46.384Z,1.40
2022-10-07T12:36:21.311Z,1.63
2022-10-07T12:39:11.933Z,1.00
2022-10-07T12:41:40.623Z,1.15
2022-10-07T12:44:23.074Z,1.42
2022-10-07T12:47:00.991Z,1.27
2022-10-07T12:49:38.614Z,1.85
2022-10-07T12:52:15.907Z,1.40
2022-10-07T12:54:52.175Z,1.60
2022-10-07T12:57:23.327Z,1.30
2022-10-07T12:59:59.425Z,1.90
2022-10-07T13:02:53.747Z,1.75
2022-10-07T13:05:44.776Z,1.67
2022-10-07T13:11:16.067Z,1.67
2022-10-07T13:14:07.203Z,1.83
2022-10-07T13:19:07.052Z,1.75
2022-10-07T13:21:36.957Z,1.55
2022-10-07T13:24:04.158Z,1.40
2022-10-07T13:26:31.394Z,1.40
2022-10-07T13:29:00.800Z,1.60
2022-10-07T13:31:30.873Z,1.50
2022-10-07T13:33:59.806Z,1.60
2022-10-07T13:36:28.855Z,1.35
2022-10-07T13:39:17.858Z,1.60
2022-10-07T13:41:47.825Z,2.25
2022-10-07T13:44:18.501Z,1.95
2022-10-07T13:47:01.447Z,1.30
2022-10-07T13:49:33.386Z,1.90
2022-10-07T13:52:05.012Z,1.40
2022-10-07T13:54:33.850Z,2.20
2022-10-07T13:57:08.928Z,1.65
2022-10-07T13:59:39.093Z,1.92
2022-10-07T14:02:12.427Z,1.92
2022-10-07T14:04:52.405Z,2.03
2022-10-07T14:07:21.488Z,1.63
2022-10-07T14:09:48.432Z,2.28
2022-10-07T14:12:22.944Z,2.38
2022-10-07T14:14:56.112Z,2.00
2022-10-07T14:17:30.479Z,1.70
2022-10-07T14:20:05.942Z,1.60
2022-10-07T14:22:42.050Z,1.60
2022-10-07T14:25:27.754Z,1.65
2022-10-07T14:27:54.676Z,1.60
2022-10-07T14:30:59.499Z,1.63
2022-10-07T14:34:10.616Z,1.55
2022-10-07T14:36:37.649Z,2.42
2022-10-07T14:39:33.596Z,1.90
2022-10-07T14:42:00.963Z,1.58
2022-10-07T14:44:28.290Z,1.65
2022-10-07T14:47:06.482Z,2.17
2022-10-07T14:49:33.605Z,1.52
2022-10-07T14:52:01.094Z,2.00
2022-10-07T14:54:28.387Z,2.00
2022-10-07T14:59:39.191Z,1.95
2022-10-07T15:02:06.800Z,4.05
2022-10-07T15:04:33.829Z,2.60
2022-10-07T15:07:00.864Z,2.90
2022-10-07T15:09:27.843Z,2.42
2022-10-07T15:11:54.755Z,2.53
2022-10-07T15:14:21.760Z,1.83
2022-10-07T15:16:50.471Z,2.00
2022-10-07T15:19:17.520Z,1.40
2022-10-07T15:21:44.526Z,1.77
2022-10-07T15:24:11.464Z,2.15
2022-10-07T15:26:38.487Z,1.60
2022-10-07T15:29:07.967Z,1.77
2022-10-07T15:31:35.028Z,1.67
2022-10-07T15:34:02.087Z,1.98
2022-10-07T15:36:30.175Z,1.45
2022-10-07T15:39:02.230Z,1.92
2022-10-07T15:41:37.877Z,1.67
2022-10-07T15:44:15.447Z,1.52
2022-10-07T15:46:43.274Z,1.30
2022-10-07T15:49:10.273Z,1.77
2022-10-07T15:51:37.497Z,1.55
2022-10-07T15:54:06.090Z,2.03
2022-10-07T15:56:33.889Z,2.50
2022-10-07T15:59:02.216Z,2.92
2022-10-07T16:01:31.858Z,4.45
2022-10-07T16:04:00.917Z,3.90
2022-10-07T16:06:35.311Z,7.13
2022-10-07T16:09:02.768Z,5.85
2022-10-07T16:11:31.327Z,3.47
2022-10-07T16:14:00.133Z,2.38
2022-10-07T16:16:28.369Z,1.48
2022-10-07T16:18:57.946Z,1.65
2022-10-07T16:21:30.615Z,2.15
2022-10-07T16:24:01.298Z,2.10
2022-10-07T16:26:33.968Z,2.58
2022-10-07T16:29:21.118Z,2.65
2022-10-07T16:31:49.336Z,3.10
2022-10-07T16:34:18.636Z,3.80
2022-10-07T16:36:49.886Z,3.67
2022-10-07T16:39:19.258Z,4.53
2022-10-07T16:41:47.523Z,5.50
2022-10-07T16:44:15.380Z,6.05
2022-10-07T16:46:43.181Z,5.15
2022-10-07T16:49:16.878Z,4.45
2022-10-07T16:51:44.835Z,3.47
2022-10-07T16:54:16.077Z,4.72
2022-10-07T16:56:52.615Z,4.63
2022-10-07T16:59:24.618Z,3.25
2022-10-07T17:01:55.715Z,4.55
2022-10-07T17:04:24.769Z,5.13
2022-10-07T17:06:52.171Z,4.88
2022-10-07T17:09:19.255Z,3.72
2022-10-07T17:11:46.863Z,4.03
2022-10-07T17:14:17.035Z,6.97
2022-10-07T17:16:53.056Z,7.28
2022-10-07T17:19:22.463Z,10.55
2022-10-07T17:21:50.280Z,10.18
2022-10-07T17:24:18.566Z,10.35
2022-10-07T17:26:46.414Z,7.80
2022-10-07T17:29:18.348Z,9.20
2022-10-07T17:31:48.369Z,3.90
2022-10-07T17:34:16.590Z,4.45
2022-10-07T17:36:43.972Z,4.25
2022-10-07T17:39:11.267Z,5.13
2022-10-07T17:41:39.315Z,3.95
2022-10-07T17:44:11.761Z,5.65
2022-10-07T17:46:40.177Z,4.72
2022-10-07T17:49:21.099Z,5.75
2022-10-07T17:51:48.131Z,3.80
2022-10-07T17:54:15.253Z,3.90
2022-10-07T17:56:44.608Z,5.22
2022-10-07T17:59:12.400Z,4.15
2022-10-07T18:01:39.320Z,3.58
2022-10-07T18:04:09.989Z,3.05
2022-10-07T18:06:38.591Z,2.90
2022-10-07T18:09:10.378Z,3.47
2022-10-07T18:11:55.994Z,3.58
2022-10-07T18:14:41.852Z,3.20
2022-10-07T18:17:10.574Z,2.42
2022-10-07T18:19:39.768Z,2.03
2022-10-07T18:22:06.930Z,2.80
2022-10-07T18:24:33.921Z,2.45
2022-10-07T18:27:01.540Z,2.45
2022-10-07T18:29:30.339Z,2.08
2022-10-07T18:31:57.369Z,2.20
2022-10-07T18:34:25.036Z,2.33
2022-10-07T18:36:56.309Z,1.73
2022-10-07T18:39:25.050Z,3.38
2022-10-07T18:41:52.009Z,2.80
2022-10-07T18:44:19.183Z,2.78
2022-10-07T18:46:46.226Z,3.25
2022-10-07T18:49:13.971Z,2.70
2022-10-07T18:51:41.301Z,2.50
2022-10-07T18:54:08.388Z,2.75
2022-10-07T18:56:39.941Z,3.33
2022-10-07T18:59:07.958Z,3.10
2022-10-07T19:01:38.838Z,2.95
2022-10-07T19:06:39.760Z,2.22
2022-10-07T19:09:09.631Z,3.40
2022-10-07T19:11:36.646Z,2.85
2022-10-07T19:14:03.954Z,1.95
2022-10-07T19:16:35.751Z,2.40
2022-10-07T19:19:05.755Z,2.33
2022-10-07T19:21:32.933Z,2.33
2022-10-07T19:24:03.499Z,1.63
2022-10-07T19:26:39.624Z,1.98
2022-10-07T19:29:09.346Z,1.83
2022-10-07T19:31:40.540Z,1.83
2022-10-07T19:34:13.585Z,1.80
2022-10-07T19:36:42.663Z,2.00
2022-10-07T19:39:10.790Z,2.90
2022-10-07T19:41:37.820Z,3.03
2022-10-07T19:44:05.909Z,2.60
2022-10-07T19:46:33.683Z,3.75
2022-10-07T19:49:02.411Z,3.80
2022-10-07T19:51:30.700Z,2.75
2022-10-07T19:53:58.850Z,2.92
2022-10-07T19:56:35.681Z,3.83
2022-10-07T19:59:08.314Z,5.05
2022-10-07T20:01:38.863Z,5.20
2022-10-07T20:04:08.573Z,5.68
2022-10-07T20:06:39.506Z,4.13
2022-10-07T20:11:34.083Z,4.22
2022-10-07T20:14:03.553Z,3.42
2022-10-07T20:16:31.270Z,2.95
2022-10-07T20:19:05.867Z,2.40
2022-10-07T20:21:35.955Z,3.70
2022-10-07T20:24:04.324Z,3.22
2022-10-07T20:26:33.509Z,2.97
2022-10-07T20:29:01.981Z,2.85
2022-10-07T20:31:32.186Z,3.55
2022-10-07T20:34:00.210Z,3.75
2022-10-07T20:36:30.157Z,4.03
2022-10-07T20:39:24.873Z,2.40
2022-10-07T20:42:11.581Z,4.15
2022-10-07T20:44:39.361Z,4.25
2022-10-07T20:47:08.923Z,3.00
2022-10-07T20:49:38.660Z,4.10
2022-10-07T20:52:08.472Z,6.70
2022-10-07T20:54:35.438Z,4.10
2022-10-07T20:57:02.375Z,2.97
2022-10-07T20:59:31.052Z,3.50
2022-10-07T21:01:59.129Z,3.40
2022-10-07T21:04:28.389Z,3.53
2022-10-07T21:06:58.591Z,3.08
2022-10-07T21:09:26.104Z,3.65
2022-10-07T21:11:53.860Z,2.78
2022-10-07T21:14:21.465Z,2.28
2022-10-07T21:16:48.942Z,2.28
2022-10-07T21:19:17.246Z,2.50
2022-10-07T21:21:44.431Z,2.25
2022-10-07T21:24:11.547Z,2.20
2022-10-07T21:26:38.491Z,2.20
2022-10-07T21:29:09.375Z,2.30
2022-10-07T21:31:36.307Z,2.50
2022-10-07T21:34:10.499Z,2.65
2022-10-07T21:36:50.281Z,2.13
2022-10-07T21:39:19.086Z,2.58
2022-10-07T21:41:47.487Z,2.10
2022-10-07T21:44:14.972Z,2.03
2022-10-07T21:46:46.644Z,2.15
2022-10-07T21:49:32.430Z,2.25
2022-10-07T21:52:08.036Z,2.35
2022-10-07T21:54:37.517Z,2.05
2022-10-07T21:57:05.251Z,2.00
2022-10-07T21:59:35.137Z,2.33
2022-10-07T22:02:02.320Z,2.40
2022-10-07T22:04:30.882Z,2.13
2022-10-07T22:07:16.402Z,2.55
2022-10-07T22:09:43.348Z,2.25
2022-10-07T22:12:10.584Z,2.50
2022-10-07T22:14:38.060Z,2.33
2022-10-07T22:17:04.992Z,2.35
2022-10-07T22:19:33.122Z,2.55
2022-10-07T22:22:00.062Z,2.50
2022-10-07T22:24:26.992Z,2.55
2022-10-07T22:26:53.930Z,2.38
2022-10-07T22:29:21.880Z,2.40
2022-10-07T22:31:49.122Z,2.83
2022-10-07T22:34:34.415Z,2.30
2022-10-07T22:37:02.134Z,2.75
2022-10-07T22:39:29.479Z,2.42
2022-10-07T22:41:57.367Z,2.78
2022-10-07T22:44:28.231Z,2.80
2022-10-07T22:49:29.549Z,2.70
2022-10-07T22:51:58.425Z,3.05
2022-10-07T22:54:25.551Z,3.53
2022-10-07T22:56:52.500Z,3.38
2022-10-07T22:59:19.412Z,3.33
2022-10-07T23:01:46.337Z,2.63
2022-10-07T23:04:13.281Z,3.13
2022-10-07T23:06:40.264Z,3.20
2022-10-07T23:09:07.223Z,3.40
2022-10-07T23:11:34.596Z,2.33
2022-10-07T23:14:01.593Z,4.90
2022-10-07T23:16:32.508Z,4.63
2022-10-07T23:21:28.817Z,3.55
2022-10-07T23:24:06.925Z,3.00
2022-10-07T23:26:34.847Z,2.65
2022-10-07T23:29:02.509Z,2.75
2022-10-07T23:31:31.818Z,2.63
2022-10-07T23:34:00.371Z,2.95
2022-10-07T23:36:28.271Z,2.72
2022-10-07T23:38:55.682Z,3.33
2022-10-07T23:41:25.434Z,2.78
2022-10-07T23:43:54.563Z,3.22
2022-10-07T23:46:23.026Z,3.30
2022-10-07T23:48:50.631Z,3.28
2022-10-07T23:51:23.318Z,3.40
2022-10-07T23:53:50.915Z,3.28
2022-10-07T23:56:20.862Z,3.63
2022-10-07T23:58:47.866Z,3.20
